Cold Creek, Nevada
Current Conditions -  °F | °C
As of 5:56 AM on Wednesday 26 Nov 2014 (Local Time) from KHND Reporting Station
Clear Clear  
Wind Chill: 31°   Ceiling: Unl
Heat Index: 37°   Visibility: 10mi
Dew Point:   Wind: 8mph
Humidity: 32%   Direction: 180°S
Pressure: 30.4"   Gusts: NA
Location:  35.8437°N, 115.134°W
Report Text: KHND 261356Z 18007KT 10SM CLR 03/M13 A3040 RMK AO2 T00271127 SLP305
Loading
Personal Weather Stations






























Interactive Weather Map New forecast layout! Learn more

10-Day Weather Forecast

Advertisements
Track Severe Weather on mobile